Time;durP1;ratioP1;P1;durP2;ratioP2;P2;SDS_P1;SDS_P2;PMS_P1;PMS_P2;Temp;Humidity;BMP_temperature;BMP_pressure;BME280_temperature;BME280_humidity;BME280_pressure;Samples;Min_cycle;Max_cycle;Signal;HPM_P1;HPM_P2
2023/08/21 00:00:16;;;;;;;2.60;2.27;;;25.40;93.20;;;;;;4930828;29;20436;-85
2023/08/21 00:02:42;;;;;;;2.03;1.83;;;25.40;93.20;;;;;;4918782;29;20438;-85
2023/08/21 00:05:10;;;;;;;2.37;1.90;;;25.40;93.20;;;;;;4918888;29;20446;-85
2023/08/21 00:07:36;;;;;;;2.53;2.10;;;25.40;93.10;;;;;;4920232;29;20478;-85
2023/08/21 00:10:05;;;;;;;1.97;1.77;;;25.40;93.10;;;;;;4932321;29;20450;-85
2023/08/21 00:12:32;;;;;;;1.97;1.77;;;25.40;93.10;;;;;;4935474;29;20449;-85
2023/08/21 00:14:59;;;;;;;1.87;1.70;;;25.40;93.10;;;;;;4925096;29;20491;-85
2023/08/21 00:17:26;;;;;;;1.80;1.57;;;25.40;93.10;;;;;;4918780;29;20462;-86
2023/08/21 00:19:52;;;;;;;2.20;2.00;;;25.40;93.10;;;;;;4923558;29;20471;-85
2023/08/21 00:22:19;;;;;;;2.40;2.20;;;25.40;93.10;;;;;;4937731;29;20445;-85
2023/08/21 00:24:46;;;;;;;2.60;2.00;;;25.40;93.10;;;;;;4937436;29;20965;-85
2023/08/21 00:27:14;;;;;;;1.90;1.70;;;25.40;93.10;;;;;;4936754;29;20454;-85
2023/08/21 00:29:41;;;;;;;2.80;1.73;;;25.40;93.10;;;;;;4921282;29;20462;-85
2023/08/21 00:32:08;;;;;;;2.10;1.90;;;25.40;93.10;;;;;;4937331;29;20453;-85
2023/08/21 00:34:35;;;;;;;1.50;1.33;;;25.40;93.10;;;;;;4937536;29;20482;-85
2023/08/21 00:37:02;;;;;;;2.10;1.97;;;25.40;93.10;;;;;;4930276;29;20456;-85
2023/08/21 00:39:29;;;;;;;1.67;1.57;;;25.40;93.10;;;;;;4917992;29;20451;-85
2023/08/21 00:41:55;;;;;;;2.40;2.10;;;25.40;93.10;;;;;;4929230;29;20457;-85
2023/08/21 00:44:24;;;;;;;1.70;1.53;;;25.40;93.00;;;;;;4937262;29;20544;-85
2023/08/21 00:46:50;;;;;;;2.00;1.80;;;25.40;93.00;;;;;;4936199;29;20475;-85
2023/08/21 00:49:17;;;;;;;1.60;1.50;;;25.40;93.00;;;;;;4936875;29;20469;-85
2023/08/21 00:51:45;;;;;;;2.03;1.93;;;25.40;93.00;;;;;;4921129;29;20482;-85
2023/08/21 00:54:12;;;;;;;1.50;1.40;;;25.40;93.00;;;;;;4918081;29;20436;-85
2023/08/21 00:56:39;;;;;;;1.83;1.70;;;25.40;93.00;;;;;;4918205;29;20943;-85
2023/08/21 00:59:06;;;;;;;1.57;1.47;;;25.30;93.00;;;;;;4926021;29;20454;-86
2023/08/21 01:01:36;;;;;;;2.10;1.90;;;25.40;93.00;;;;;;4936661;29;20453;-86
2023/08/21 01:04:03;;;;;;;4.13;2.07;;;25.40;93.00;;;;;;4936222;29;20946;-85
2023/08/21 01:06:30;;;;;;;1.90;1.80;;;25.40;93.00;;;;;;4919157;29;20447;-85
2023/08/21 01:09:01;;;;;;;2.00;1.90;;;25.40;93.00;;;;;;4927614;29;20986;-85
2023/08/21 01:11:35;;;;;;;1.80;1.43;;;25.40;93.00;;;;;;4929024;29;20447;-85
2023/08/21 01:14:11;;;;;;;2.60;1.50;;;25.40;93.00;;;;;;4917929;29;20449;-85
2023/08/21 01:16:41;;;;;;;1.93;1.63;;;25.40;93.00;;;;;;4925963;29;20442;-85
2023/08/21 01:19:16;;;;;;;1.80;1.70;;;25.40;93.00;;;;;;4932745;29;20467;-95
2023/08/21 01:21:43;;;;;;;1.97;1.40;;;25.40;93.00;;;;;;4936871;29;20446;-85
2023/08/21 01:24:11;;;;;;;1.67;1.57;;;25.40;93.00;;;;;;4936325;29;20442;-85
2023/08/21 01:26:38;;;;;;;2.03;1.83;;;25.40;93.00;;;;;;4927550;29;20470;-85
2023/08/21 01:29:05;;;;;;;1.60;1.50;;;25.30;92.90;;;;;;4917359;29;20455;-85
2023/08/21 01:31:36;;;;;;;1.67;1.57;;;25.40;92.90;;;;;;4932656;29;20816;-85
2023/08/21 01:34:07;;;;;;;2.03;1.90;;;25.30;92.90;;;;;;4936340;29;20456;-85
2023/08/21 01:36:35;;;;;;;2.23;1.53;;;25.30;92.90;;;;;;4929393;29;20919;-85
2023/08/21 01:39:02;;;;;;;1.57;1.47;;;25.30;92.90;;;;;;4917453;29;20783;-85
2023/08/21 01:41:30;;;;;;;2.90;1.80;;;25.30;92.90;;;;;;4923207;29;20505;-85
2023/08/21 01:43:57;;;;;;;2.10;1.90;;;25.40;92.90;;;;;;4935992;29;20449;-85
2023/08/21 01:46:24;;;;;;;2.70;1.80;;;25.30;92.90;;;;;;4931994;29;20542;-94
2023/08/21 01:48:51;;;;;;;1.57;1.47;;;25.30;92.90;;;;;;4918315;29;20463;-85
2023/08/21 01:51:17;;;;;;;1.50;1.40;;;25.40;92.90;;;;;;4925334;29;20493;-85
2023/08/21 01:53:44;;;;;;;1.40;1.30;;;25.30;92.90;;;;;;4936002;29;20453;-85
2023/08/21 01:56:11;;;;;;;1.80;1.50;;;25.30;92.90;;;;;;4923828;29;20504;-85
2023/08/21 01:58:39;;;;;;;1.43;1.30;;;25.30;92.80;;;;;;4928767;29;20446;-85
2023/08/21 02:01:06;;;;;;;1.50;1.40;;;25.30;92.90;;;;;;4942318;29;20453;-85
2023/08/21 02:03:32;;;;;;;1.63;1.40;;;25.30;92.90;;;;;;4942245;29;20449;-85
2023/08/21 02:05:59;;;;;;;1.40;1.30;;;25.30;92.80;;;;;;4926534;29;20451;-85
2023/08/21 02:08:31;;;;;;;1.50;1.40;;;25.30;92.80;;;;;;4942099;29;20449;-85
2023/08/21 02:10:58;;;;;;;1.47;1.37;;;25.30;92.80;;;;;;4942367;29;20450;-85
2023/08/21 02:13:25;;;;;;;1.70;1.40;;;25.40;92.80;;;;;;4923796;29;20443;-85
2023/08/21 02:15:53;;;;;;;2.37;1.70;;;25.30;92.80;;;;;;4923466;29;20494;-84
2023/08/21 02:18:20;;;;;;;1.20;1.10;;;25.30;92.80;;;;;;4941982;29;20465;-85
2023/08/21 02:20:48;;;;;;;1.50;1.30;;;25.30;92.80;;;;;;4929607;29;20465;-85
2023/08/21 02:23:15;;;;;;;2.57;1.53;;;25.30;92.80;;;;;;4923391;29;20450;-85
2023/08/21 02:25:42;;;;;;;1.30;1.20;;;25.30;92.80;;;;;;4924125;29;20522;-85
2023/08/21 02:28:09;;;;;;;1.50;1.40;;;25.30;92.80;;;;;;4935023;29;20528;-84
2023/08/21 02:30:36;;;;;;;1.30;1.13;;;25.30;92.70;;;;;;4928516;29;20434;-86
2023/08/21 02:33:04;;;;;;;2.40;1.40;;;25.30;92.70;;;;;;4942224;29;20454;-85
2023/08/21 02:35:31;;;;;;;1.40;1.30;;;25.30;92.80;;;;;;4942144;29;20482;-85
2023/08/21 02:37:58;;;;;;;2.10;1.70;;;25.30;92.70;;;;;;4926095;29;20451;-86
2023/08/21 02:40:25;;;;;;;1.67;1.40;;;25.30;92.70;;;;;;4936161;29;20462;-85
2023/08/21 02:42:51;;;;;;;2.30;1.43;;;25.30;92.70;;;;;;4942416;29;20883;-85
2023/08/21 02:45:19;;;;;;;1.50;1.40;;;25.30;92.70;;;;;;4939588;29;20982;-95
2023/08/21 02:47:46;;;;;;;1.60;1.50;;;25.30;92.70;;;;;;4922968;29;20442;-95
2023/08/21 02:50:14;;;;;;;1.40;1.30;;;25.30;92.70;;;;;;4922977;29;20485;-85
2023/08/21 02:52:41;;;;;;;2.40;1.63;;;25.30;92.70;;;;;;4922953;29;20448;-86
2023/08/21 02:55:08;;;;;;;1.80;1.70;;;25.30;92.70;;;;;;4928533;29;20509;-85
2023/08/21 02:57:35;;;;;;;1.90;1.50;;;25.30;92.70;;;;;;4931021;29;20535;-86
2023/08/21 03:00:02;;;;;;;1.30;1.20;;;25.30;92.70;;;;;;4935386;29;20446;-86
2023/08/21 03:02:29;;;;;;;1.50;1.40;;;25.30;92.70;;;;;;4920504;29;21210;-85
2023/08/21 03:04:56;;;;;;;2.70;1.40;;;25.30;92.70;;;;;;4920533;29;20439;-85
2023/08/21 03:07:24;;;;;;;1.30;1.17;;;25.30;92.70;;;;;;4932857;29;20453;-85
2023/08/21 03:09:51;;;;;;;1.40;1.30;;;25.30;92.70;;;;;;4938720;29;20453;-85
2023/08/21 03:12:18;;;;;;;1.80;1.70;;;25.40;92.70;;;;;;4938364;29;20440;-85
2023/08/21 03:14:46;;;;;;;1.67;1.57;;;25.30;92.70;;;;;;4919572;29;20447;-86
2023/08/21 03:17:19;;;;;;;1.30;1.20;;;25.30;92.70;;;;;;4927047;29;20504;-85
2023/08/21 03:19:46;;;;;;;1.40;1.30;;;25.30;92.70;;;;;;4926809;29;20878;-85
2023/08/21 03:22:13;;;;;;;1.77;1.50;;;25.30;92.70;;;;;;4919800;29;20444;-86
2023/08/21 03:24:41;;;;;;;2.20;1.10;;;25.30;92.70;;;;;;4925304;29;20876;-85
2023/08/21 03:27:08;;;;;;;1.40;1.30;;;25.30;92.70;;;;;;4931072;29;20462;-85
2023/08/21 03:29:35;;;;;;;1.60;1.23;;;25.20;92.60;;;;;;4919623;29;20474;-85
2023/08/21 03:32:02;;;;;;;1.60;1.33;;;25.30;92.70;;;;;;4933394;29;20440;-85
2023/08/21 03:34:28;;;;;;;2.33;1.30;;;25.30;92.60;;;;;;4919210;29;20451;-85
2023/08/21 03:36:55;;;;;;;2.73;1.40;;;25.30;92.60;;;;;;4921454;29;21102;-85
2023/08/21 03:39:22;;;;;;;1.77;1.10;;;25.20;92.60;;;;;;4938286;29;20465;-85
2023/08/21 03:41:50;;;;;;;1.70;1.30;;;25.20;92.60;;;;;;4927262;29;20456;-85
2023/08/21 03:44:17;;;;;;;1.53;1.43;;;25.30;92.60;;;;;;4919165;29;20783;-85
2023/08/21 03:46:44;;;;;;;1.50;1.30;;;25.20;92.60;;;;;;4919097;29;20459;-86
2023/08/21 03:49:10;;;;;;;5.37;1.67;;;25.20;92.60;;;;;;4930597;29;20985;-85
2023/08/21 03:51:37;;;;;;;1.50;1.40;;;25.20;92.60;;;;;;4929842;29;20491;-85
2023/08/21 03:54:04;;;;;;;1.50;1.30;;;25.20;92.60;;;;;;4919501;29;20455;-95
2023/08/21 03:56:31;;;;;;;1.50;1.37;;;25.20;92.60;;;;;;4919079;29;20506;-85
2023/08/21 03:58:59;;;;;;;1.37;1.27;;;25.20;92.50;;;;;;4926229;29;20451;-85
2023/08/21 04:01:26;;;;;;;1.40;1.10;;;25.20;92.60;;;;;;4935804;29;20457;-85
2023/08/21 04:03:53;;;;;;;1.57;1.23;;;25.20;92.50;;;;;;4937637;29;20481;-85
2023/08/21 04:06:20;;;;;;;1.80;1.40;;;25.20;92.50;;;;;;4937962;29;20454;-86
2023/08/21 04:08:47;;;;;;;1.40;1.30;;;25.20;92.60;;;;;;4936433;29;20812;-85
2023/08/21 04:11:13;;;;;;;1.20;1.10;;;25.20;92.50;;;;;;4937319;29;20460;-86
2023/08/21 04:13:40;;;;;;;1.70;1.50;;;25.20;92.50;;;;;;4936527;29;20931;-91
2023/08/21 04:16:10;;;;;;;1.60;1.10;;;25.20;92.50;;;;;;4927993;29;20483;-85
2023/08/21 04:18:38;;;;;;;1.30;1.20;;;25.20;92.50;;;;;;4918293;29;20983;-85
2023/08/21 04:21:05;;;;;;;1.30;1.20;;;25.20;92.50;;;;;;4926211;29;20447;-85
2023/08/21 04:23:32;;;;;;;2.03;1.70;;;25.20;92.50;;;;;;4926444;29;20530;-85
2023/08/21 04:26:02;;;;;;;1.80;1.27;;;25.30;92.50;;;;;;4918665;29;20451;-85
2023/08/21 04:28:30;;;;;;;1.50;1.17;;;25.20;92.50;;;;;;4918769;29;20444;-85
2023/08/21 04:30:57;;;;;;;1.57;1.20;;;25.20;92.50;;;;;;4919971;29;20447;-85
2023/08/21 04:33:26;;;;;;;1.90;1.03;;;25.20;92.50;;;;;;4918229;29;20455;-85
2023/08/21 04:35:52;;;;;;;1.50;1.27;;;25.20;92.50;;;;;;4918339;29;20990;-85
2023/08/21 04:38:19;;;;;;;1.30;1.20;;;25.20;92.50;;;;;;4918333;29;20447;-85
2023/08/21 04:40:46;;;;;;;1.67;1.30;;;25.20;92.50;;;;;;4918383;29;20458;-85
2023/08/21 04:43:13;;;;;;;1.27;1.17;;;25.20;92.50;;;;;;4919979;29;20436;-85
2023/08/21 04:45:46;;;;;;;1.97;1.20;;;25.20;92.40;;;;;;4931003;29;20459;-85
2023/08/21 04:48:13;;;;;;;1.50;1.30;;;25.20;92.40;;;;;;4919170;29;20474;-84
2023/08/21 04:50:41;;;;;;;1.57;1.30;;;25.20;92.40;;;;;;4935859;29;20479;-85
2023/08/21 04:53:08;;;;;;;1.37;1.27;;;25.20;92.40;;;;;;4918066;29;20447;-85
2023/08/21 04:55:36;;;;;;;1.20;1.10;;;25.20;92.40;;;;;;4919039;29;20448;-85
2023/08/21 04:58:03;;;;;;;2.30;1.40;;;25.20;92.40;;;;;;4929033;29;20460;-85
2023/08/21 05:00:30;;;;;;;1.40;1.30;;;25.20;92.40;;;;;;4929780;29;20454;-85
2023/08/21 05:02:57;;;;;;;1.63;1.23;;;25.20;92.40;;;;;;4928994;29;20455;-85
2023/08/21 05:05:24;;;;;;;1.30;1.13;;;25.20;92.40;;;;;;4921786;29;20462;-85
2023/08/21 05:07:53;;;;;;;1.70;1.30;;;25.20;92.40;;;;;;4917968;29;20796;-85
2023/08/21 05:10:20;;;;;;;1.50;1.20;;;25.20;92.40;;;;;;4917730;29;20440;-86
2023/08/21 05:12:47;;;;;;;2.70;1.33;;;25.20;92.40;;;;;;4921404;29;20447;-85
2023/08/21 05:15:14;;;;;;;1.53;1.20;;;25.20;92.40;;;;;;4917444;29;20998;-85
2023/08/21 05:17:41;;;;;;;1.43;1.33;;;25.20;92.30;;;;;;4918889;29;20529;-85
2023/08/21 05:20:08;;;;;;;1.90;1.40;;;25.20;92.40;;;;;;4932218;29;20451;-85
2023/08/21 05:22:35;;;;;;;1.47;1.10;;;25.20;92.40;;;;;;4919947;29;20625;-85
2023/08/21 05:25:04;;;;;;;1.30;1.17;;;25.20;92.40;;;;;;4917119;29;20442;-86
2023/08/21 05:27:30;;;;;;;1.77;1.10;;;25.20;92.40;;;;;;4919075;29;20458;-85
2023/08/21 05:29:57;;;;;;;1.50;1.40;;;25.20;92.40;;;;;;4935586;29;20447;-86
2023/08/21 05:32:24;;;;;;;1.73;1.13;;;25.20;92.40;;;;;;4936337;29;20452;-85
2023/08/21 05:34:51;;;;;;;1.50;1.40;;;25.20;92.40;;;;;;4920915;29;20447;-84
2023/08/21 05:37:17;;;;;;;1.53;1.27;;;25.20;92.30;;;;;;4932742;29;20489;-85
2023/08/21 05:39:44;;;;;;;1.67;1.40;;;25.20;92.40;;;;;;4917857;29;20446;-85
2023/08/21 05:42:12;;;;;;;1.83;1.33;;;25.20;92.40;;;;;;4928793;29;20443;-86
2023/08/21 05:44:39;;;;;;;1.63;1.23;;;25.30;92.40;;;;;;4936133;29;20457;-85
2023/08/21 05:47:06;;;;;;;1.50;1.13;;;25.20;92.40;;;;;;4917659;29;20450;-85
2023/08/21 05:49:33;;;;;;;1.43;1.33;;;25.20;92.30;;;;;;4917361;29;20474;-85
2023/08/21 05:51:59;;;;;;;1.40;1.30;;;25.20;92.40;;;;;;4920093;29;20470;-85
2023/08/21 05:54:26;;;;;;;2.03;1.20;;;25.20;92.40;;;;;;4924055;29;20792;-85
2023/08/21 05:56:53;;;;;;;1.50;1.33;;;25.20;92.40;;;;;;4927977;29;20587;-94
2023/08/21 05:59:30;;;;;;;1.50;1.20;;;25.20;92.30;;;;;;4918106;29;20455;-85
2023/08/21 06:01:57;;;;;;;1.40;1.27;;;25.20;92.30;;;;;;4932841;29;20453;-85
2023/08/21 06:04:24;;;;;;;2.30;1.30;;;25.20;92.30;;;;;;4935991;29;20456;-85
2023/08/21 06:06:51;;;;;;;1.70;1.20;;;25.20;92.30;;;;;;4935800;29;20442;-85
2023/08/21 06:09:18;;;;;;;1.47;1.13;;;25.20;92.30;;;;;;4934262;29;20447;-85
2023/08/21 06:11:45;;;;;;;2.10;1.33;;;25.20;92.30;;;;;;4935927;29;20549;-85
2023/08/21 06:14:11;;;;;;;2.10;1.63;;;25.20;92.30;;;;;;4935839;29;20538;-85
2023/08/21 06:16:40;;;;;;;1.53;1.43;;;25.20;92.30;;;;;;4935792;29;20847;-85
2023/08/21 06:19:06;;;;;;;1.40;1.30;;;25.20;92.20;;;;;;4935813;29;20842;-85
2023/08/21 06:21:33;;;;;;;2.03;1.30;;;25.20;92.20;;;;;;4935832;29;20454;-85
2023/08/21 06:24:00;;;;;;;1.60;1.40;;;25.20;92.20;;;;;;4928252;29;20443;-85
2023/08/21 06:26:27;;;;;;;1.50;1.40;;;25.20;92.20;;;;;;4920058;29;20447;-85
2023/08/21 06:28:54;;;;;;;1.70;1.53;;;25.20;92.20;;;;;;4928761;29;20534;-85
2023/08/21 06:31:21;;;;;;;1.20;1.10;;;25.20;92.20;;;;;;4916755;29;20446;-86
2023/08/21 06:33:49;;;;;;;1.10;0.90;;;25.30;92.20;;;;;;4916937;29;20442;-85
2023/08/21 06:36:15;;;;;;;1.37;1.27;;;25.20;92.20;;;;;;4923161;29;20474;-85
2023/08/21 06:38:44;;;;;;;2.20;1.10;;;25.20;92.20;;;;;;4938932;29;20449;-85
2023/08/21 06:41:10;;;;;;;1.50;1.30;;;25.20;92.20;;;;;;4938804;29;20447;-91
2023/08/21 06:43:37;;;;;;;1.53;1.43;;;25.30;92.20;;;;;;4921969;29;20447;-89
2023/08/21 06:46:04;;;;;;;2.13;1.17;;;25.30;92.20;;;;;;4920298;29;20932;-85
2023/08/21 06:48:31;;;;;;;1.90;1.57;;;25.20;92.10;;;;;;4939393;29;20817;-85
2023/08/21 06:50:59;;;;;;;1.60;1.10;;;25.30;92.10;;;;;;4938824;29;20473;-85
2023/08/21 06:53:26;;;;;;;1.30;1.17;;;25.30;92.10;;;;;;4938315;29;20453;-85
2023/08/21 06:55:53;;;;;;;1.50;1.10;;;25.30;92.10;;;;;;4939060;29;20544;-85
2023/08/21 06:58:19;;;;;;;1.67;1.30;;;25.30;92.10;;;;;;4938256;29;20500;-85
2023/08/21 07:00:46;;;;;;;1.60;1.30;;;25.30;92.10;;;;;;4939051;29;20481;-86
2023/08/21 07:03:13;;;;;;;1.30;1.20;;;25.30;92.10;;;;;;4937354;29;20457;-87
2023/08/21 07:05:40;;;;;;;1.53;1.00;;;25.40;92.10;;;;;;4932599;29;20477;-85
2023/08/21 07:08:08;;;;;;;1.43;1.33;;;25.30;92.10;;;;;;4920284;29;20455;-85
2023/08/21 07:10:37;;;;;;;1.40;1.23;;;25.30;92.20;;;;;;4919894;29;20454;-85
2023/08/21 07:13:04;;;;;;;1.20;1.10;;;25.40;92.20;;;;;;4919561;29;20793;-85
2023/08/21 07:15:31;;;;;;;1.40;1.20;;;25.40;92.30;;;;;;4919743;29;20448;-85
2023/08/21 07:17:58;;;;;;;1.33;1.23;;;25.40;92.30;;;;;;4919738;29;20495;-85
2023/08/21 08:18:53;;;;;;;2.60;2.23;;;25.20;89.30;;;;;;5096262;23;20531;-95
2023/08/21 08:21:20;;;;;;;6.67;2.30;;;25.20;89.80;;;;;;4936154;29;20454;-83
2023/08/21 08:23:47;;;;;;;2.73;1.87;;;25.20;90.20;;;;;;4920163;29;20465;-83
2023/08/21 08:26:14;;;;;;;2.37;2.00;;;25.20;90.50;;;;;;4936353;29;20465;-83
2023/08/21 08:28:40;;;;;;;3.30;2.00;;;25.20;90.70;;;;;;4937414;29;20449;-84
2023/08/21 08:31:08;;;;;;;3.80;2.40;;;25.20;90.70;;;;;;4934159;29;20545;-83
2023/08/21 08:33:35;;;;;;;3.83;1.83;;;25.20;90.80;;;;;;4928141;29;20450;-83
2023/08/21 08:36:03;;;;;;;4.97;2.43;;;25.20;90.80;;;;;;4935514;29;20451;-83
2023/08/21 08:38:30;;;;;;;2.80;2.03;;;25.30;91.00;;;;;;4929299;29;20486;-83
2023/08/21 08:50:13;;;;;;;5.13;2.30;;;25.20;91.00;;;;;;4962874;28;20530;-96
2023/08/21 08:52:47;;;;;;;6.40;2.23;;;25.40;91.00;;;;;;5243621;23;20504;-95
2023/08/21 08:55:20;;;;;;;5.70;2.03;;;25.30;90.90;;;;;;4939513;29;20454;-96
2023/08/21 08:57:49;;;;;;;3.07;1.97;;;25.10;90.80;;;;;;4938247;29;20490;-94
2023/08/21 09:00:21;;;;;;;3.90;2.20;;;25.20;90.90;;;;;;4937700;29;20447;-96
2023/08/21 09:02:55;;;;;;;2.67;2.00;;;25.30;90.90;;;;;;4938588;29;20459;-96
2023/08/21 09:05:29;;;;;;;3.13;1.87;;;25.20;90.90;;;;;;4939019;29;20449;-95
2023/08/21 09:08:15;;;;;;;2.83;1.80;;;25.20;90.90;;;;;;4940597;29;20533;-96
2023/08/21 09:10:46;;;;;;;2.90;1.77;;;25.30;91.00;;;;;;4941606;29;20456;-96
2023/08/21 09:13:16;;;;;;;1.50;1.33;;;25.10;91.00;;;;;;4939492;29;20459;-96
2023/08/21 09:15:52;;;;;;;2.20;1.90;;;25.30;91.10;;;;;;4939651;29;20464;-96
2023/08/21 09:18:19;;;;;;;2.13;1.67;;;25.30;91.10;;;;;;4938777;29;20493;-96
2023/08/21 09:20:47;;;;;;;4.87;2.23;;;25.20;91.10;;;;;;5172959;23;20536;-94
2023/08/21 09:23:17;;;;;;;6.23;2.17;;;25.20;91.20;;;;;;4936173;29;21371;-87
2023/08/21 09:25:47;;;;;;;4.33;1.80;;;25.30;91.30;;;;;;4936461;29;20447;-87
2023/08/21 09:28:14;;;;;;;2.30;1.47;;;25.30;91.40;;;;;;4936934;29;20453;-87
2023/08/21 09:30:48;;;;;;;2.23;1.70;;;25.30;91.40;;;;;;4937535;29;20449;-88
2023/08/21 09:33:17;;;;;;;3.50;2.10;;;25.30;91.40;;;;;;4936484;29;20537;-87
2023/08/21 09:35:44;;;;;;;5.03;1.47;;;25.30;91.40;;;;;;4936680;29;20443;-87
2023/08/21 09:38:11;;;;;;;2.53;1.67;;;25.30;91.40;;;;;;4936309;29;20505;-87
2023/08/21 09:40:42;;;;;;;5.63;1.63;;;25.30;91.40;;;;;;4935355;29;20517;-87
2023/08/21 09:43:10;;;;;;;3.07;1.80;;;25.30;91.40;;;;;;4936024;29;20454;-87
2023/08/21 09:45:38;;;;;;;1.53;1.33;;;25.30;91.40;;;;;;4935887;29;20450;-88
2023/08/21 09:48:06;;;;;;;4.10;1.47;;;25.30;91.50;;;;;;4935149;29;20474;-87
2023/08/21 09:50:34;;;;;;;2.73;1.60;;;25.30;91.50;;;;;;4935649;29;20530;-87
2023/08/21 09:53:02;;;;;;;2.10;1.73;;;25.30;91.50;;;;;;4935512;29;20535;-87
2023/08/21 09:55:32;;;;;;;1.83;1.43;;;25.30;91.50;;;;;;4935916;29;20449;-95
2023/08/21 09:58:01;;;;;;;3.97;1.60;;;25.30;91.50;;;;;;4936712;29;20505;-95
2023/08/21 10:00:30;;;;;;;2.53;1.27;;;25.30;91.50;;;;;;4935460;29;20457;-87
2023/08/21 10:03:02;;;;;;;1.93;1.50;;;25.30;91.50;;;;;;4936145;29;20434;-86
2023/08/21 10:05:29;;;;;;;2.87;1.50;;;25.30;91.50;;;;;;4936295;29;20465;-87
2023/08/21 10:07:57;;;;;;;3.00;1.30;;;25.30;91.90;;;;;;4936396;29;20808;-87
2023/08/21 10:10:24;;;;;;;2.07;1.37;;;25.30;91.50;;;;;;4937604;29;20522;-87
2023/08/21 10:12:51;;;;;;;4.03;1.23;;;25.30;91.50;;;;;;4940183;29;20797;-87
2023/08/21 10:15:20;;;;;;;2.10;1.60;;;25.30;91.60;;;;;;4939942;29;20959;-87
2023/08/21 10:17:46;;;;;;;3.83;1.60;;;25.30;91.50;;;;;;4939665;29;21261;-87
2023/08/21 10:20:13;;;;;;;2.00;1.43;;;25.30;91.70;;;;;;4939339;29;20503;-87
2023/08/21 10:22:44;;;;;;;2.10;1.33;;;25.30;91.60;;;;;;4939273;29;20937;-87
2023/08/21 10:25:22;;;;;;;1.80;1.20;;;25.30;91.60;;;;;;4939751;29;20462;-96
2023/08/21 10:27:51;;;;;;;1.53;1.43;;;25.30;91.60;;;;;;4940226;29;20441;-95
2023/08/21 10:30:23;;;;;;;1.80;1.50;;;25.30;91.60;;;;;;4939273;29;20489;-87
2023/08/21 10:32:52;;;;;;;2.37;1.70;;;25.30;91.60;;;;;;4939559;29;20932;-87
2023/08/21 10:35:21;;;;;;;1.97;1.77;;;25.30;91.60;;;;;;4939539;29;20548;-88
2023/08/21 10:38:07;;;;;;;2.07;1.47;;;25.30;91.70;;;;;;4939302;29;20488;-87
2023/08/21 10:40:35;;;;;;;1.60;1.43;;;25.30;91.70;;;;;;4947309;29;20460;-87
2023/08/21 10:49:39;;;;;;;2.10;1.23;;;25.30;91.70;;;;;;5090338;23;20493;-96
2023/08/21 10:52:27;;;;;;;5.47;1.60;;;25.30;91.80;;;;;;4940191;29;20446;-96
2023/08/21 10:57:58;;;;;;;1.50;1.30;;;25.30;91.70;;;;;;4940074;29;20504;-92
2023/08/21 11:00:25;;;;;;;1.30;1.20;;;25.30;91.90;;;;;;4940173;29;20537;-93
2023/08/21 11:02:52;;;;;;;2.30;1.50;;;25.30;91.80;;;;;;4941084;28;20431;-87
2023/08/21 11:05:20;;;;;;;3.47;1.30;;;25.30;91.80;;;;;;4941898;29;21169;-87
2023/08/21 11:07:49;;;;;;;1.40;1.30;;;25.30;91.90;;;;;;4943443;29;20888;-87
2023/08/21 11:10:18;;;;;;;2.00;1.37;;;25.30;91.90;;;;;;4931355;23;20489;-88
2023/08/21 11:12:53;;;;;;;1.60;1.23;;;25.30;91.90;;;;;;4924378;29;20535;-86
2023/08/21 11:15:20;;;;;;;2.77;1.20;;;25.30;91.80;;;;;;4920759;29;20545;-89
2023/08/21 11:17:55;;;;;;;6.27;1.40;;;25.30;91.80;;;;;;4922870;29;21021;-90
2023/08/21 11:20:23;;;;;;;8.50;1.53;;;25.30;91.80;;;;;;4920909;29;20530;-86
2023/08/21 11:23:00;;;;;;;1.73;1.30;;;25.30;91.80;;;;;;4909835;29;20462;-86
2023/08/21 11:25:27;;;;;;;2.37;1.50;;;25.30;91.90;;;;;;4902988;29;20432;-87
2023/08/21 11:27:54;;;;;;;2.37;1.40;;;25.30;91.80;;;;;;4900948;29;20814;-87
2023/08/21 11:30:23;;;;;;;3.87;1.63;;;25.30;91.80;;;;;;4903551;29;20458;-87
2023/08/21 11:32:50;;;;;;;4.37;1.80;;;25.30;91.80;;;;;;4905470;29;20448;-87
2023/08/21 11:35:17;;;;;;;1.80;1.20;;;25.30;91.80;;;;;;4906044;29;20457;-87
2023/08/21 11:37:46;;;;;;;2.47;1.30;;;25.30;91.80;;;;;;4902961;29;20571;-87
2023/08/21 11:40:14;;;;;;;4.00;1.60;;;25.30;91.80;;;;;;4906169;29;20460;-87
2023/08/21 11:42:41;;;;;;;1.50;1.40;;;25.30;91.80;;;;;;4921339;23;20981;-87
2023/08/21 11:45:10;;;;;;;3.43;1.33;;;25.30;91.80;;;;;;4940823;29;20461;-87
2023/08/21 11:47:37;;;;;;;2.97;1.30;;;25.30;91.80;;;;;;4940322;29;20543;-87
2023/08/21 11:50:06;;;;;;;1.97;1.33;;;25.30;91.80;;;;;;4938992;29;20480;-87
2023/08/21 11:52:41;;;;;;;2.90;1.37;;;25.30;91.80;;;;;;4950267;23;20589;-87
2023/08/21 11:55:10;;;;;;;2.30;1.10;;;25.30;91.80;;;;;;4939107;29;20533;-87
2023/08/21 11:57:54;;;;;;;1.97;1.30;;;25.30;92.20;;;;;;4936827;29;20609;-87
2023/08/21 12:00:29;;;;;;;2.57;1.40;;;25.30;91.80;;;;;;4943845;29;20458;-87
2023/08/21 12:02:57;;;;;;;2.53;1.47;;;25.30;91.80;;;;;;4948693;23;20573;-87
2023/08/21 12:05:24;;;;;;;3.03;1.07;;;25.30;91.80;;;;;;4943187;29;20809;-87
2023/08/21 12:07:51;;;;;;;1.33;1.23;;;25.30;91.80;;;;;;4959042;23;20493;-87
2023/08/21 12:10:24;;;;;;;1.30;1.20;;;25.30;91.80;;;;;;4958251;29;20937;-87
2023/08/21 12:12:51;;;;;;;2.57;1.60;;;25.30;91.80;;;;;;4960570;28;20452;-87
2023/08/21 12:15:18;;;;;;;1.60;1.50;;;25.30;91.80;;;;;;4959760;28;20454;-87
2023/08/21 12:17:45;;;;;;;1.60;1.50;;;25.30;91.80;;;;;;4960459;28;20588;-87
2023/08/21 12:20:13;;;;;;;1.30;1.20;;;25.30;91.80;;;;;;4958631;29;20945;-87
2023/08/21 12:22:40;;;;;;;1.23;1.07;;;25.30;91.80;;;;;;4957182;29;20933;-87
2023/08/21 12:25:08;;;;;;;1.43;1.20;;;25.30;91.80;;;;;;4958417;28;20453;-87
2023/08/21 12:27:37;;;;;;;1.83;1.40;;;25.30;91.80;;;;;;4956355;29;20532;-87
2023/08/21 12:30:04;;;;;;;1.57;1.17;;;25.30;91.80;;;;;;4957160;29;20446;-87
2023/08/21 12:32:31;;;;;;;2.00;1.23;;;25.30;91.80;;;;;;4959004;28;20446;-87
2023/08/21 12:34:57;;;;;;;1.50;1.40;;;25.30;91.80;;;;;;4956773;28;20457;-87
2023/08/21 12:37:25;;;;;;;2.80;1.50;;;25.40;91.80;;;;;;4955350;23;20486;-87
2023/08/21 12:39:52;;;;;;;1.53;1.43;;;25.30;91.80;;;;;;4949222;23;20560;-87
2023/08/21 12:42:19;;;;;;;3.20;1.30;;;25.40;91.80;;;;;;4943182;29;20437;-87
2023/08/21 12:44:47;;;;;;;1.30;1.10;;;25.30;91.80;;;;;;4949626;23;20487;-87
2023/08/21 12:47:14;;;;;;;1.67;1.23;;;25.40;91.90;;;;;;4939600;29;20458;-87
2023/08/21 12:49:41;;;;;;;1.80;1.30;;;25.40;91.80;;;;;;4937724;29;20530;-87
2023/08/21 12:52:08;;;;;;;1.23;1.10;;;25.40;91.80;;;;;;4938257;29;20454;-87
2023/08/21 12:54:34;;;;;;;1.20;1.10;;;25.40;91.80;;;;;;4940610;29;20442;-88
2023/08/21 12:57:01;;;;;;;1.20;1.07;;;25.40;91.90;;;;;;4944536;29;20455;-87
2023/08/21 12:59:28;;;;;;;1.87;1.30;;;25.30;91.80;;;;;;4941430;29;20517;-87
2023/08/21 13:01:56;;;;;;;3.90;1.60;;;25.30;91.80;;;;;;4942366;29;20451;-87
2023/08/21 13:04:23;;;;;;;1.40;1.20;;;25.40;91.90;;;;;;4947206;23;20825;-87
2023/08/21 13:06:51;;;;;;;1.33;1.23;;;25.30;91.80;;;;;;4952855;23;20584;-87
2023/08/21 13:09:18;;;;;;;1.30;1.20;;;25.40;91.90;;;;;;4941435;29;20457;-87
2023/08/21 13:11:45;;;;;;;1.40;1.30;;;25.30;91.90;;;;;;4944966;23;21031;-87
2023/08/21 13:14:12;;;;;;;1.20;1.00;;;25.30;91.80;;;;;;4942827;29;20498;-87
2023/08/21 13:16:38;;;;;;;1.70;1.23;;;25.30;91.80;;;;;;4941126;29;20484;-87
2023/08/21 13:19:07;;;;;;;2.07;1.10;;;25.30;91.80;;;;;;4943249;29;20491;-87
2023/08/21 13:21:33;;;;;;;1.33;1.23;;;25.40;91.90;;;;;;4947177;23;20500;-87
2023/08/21 13:24:00;;;;;;;1.20;1.00;;;25.40;91.90;;;;;;4939554;29;20481;-87
2023/08/21 13:26:29;;;;;;;1.30;1.00;;;25.40;91.90;;;;;;4938011;29;20450;-87
2023/08/21 13:35:23;;;;;;;1.40;1.27;;;25.40;91.90;;;;;;4794517;23;20497;-87
2023/08/21 13:37:50;;;;;;;1.30;1.10;;;25.40;92.00;;;;;;4938347;29;20998;-87
2023/08/21 13:40:18;;;;;;;1.30;1.07;;;25.40;91.90;;;;;;4938123;29;20537;-87
2023/08/21 13:42:45;;;;;;;1.43;1.27;;;25.40;91.90;;;;;;4939645;29;20458;-87
2023/08/21 13:45:14;;;;;;;3.50;1.10;;;25.40;92.00;;;;;;4943856;29;20487;-87
2023/08/21 13:47:42;;;;;;;2.03;1.20;;;25.40;91.90;;;;;;4936286;29;20470;-87
2023/08/21 13:50:10;;;;;;;3.30;1.57;;;25.40;91.90;;;;;;4952378;23;20502;-87
2023/08/21 13:52:39;;;;;;;1.80;1.40;;;25.40;91.90;;;;;;4937975;29;20450;-87
2023/08/21 13:55:06;;;;;;;1.20;1.07;;;25.40;91.90;;;;;;4938638;29;20811;-87
2023/08/21 13:57:33;;;;;;;1.40;1.30;;;25.40;91.90;;;;;;4939721;29;20550;-87
2023/08/21 14:00:00;;;;;;;1.80;1.27;;;25.40;91.90;;;;;;4939862;29;20588;-87
2023/08/21 14:02:27;;;;;;;1.80;1.40;;;25.40;91.90;;;;;;4940292;29;21025;-87
2023/08/21 14:04:54;;;;;;;1.40;1.30;;;25.40;91.90;;;;;;4941232;29;20457;-87
2023/08/21 14:07:21;;;;;;;1.30;1.10;;;25.40;91.90;;;;;;4938710;29;20523;-87
2023/08/21 14:09:49;;;;;;;1.40;1.10;;;25.40;91.90;;;;;;4937332;29;20956;-87
2023/08/21 14:12:16;;;;;;;1.40;1.20;;;25.40;91.90;;;;;;4954263;23;20469;-87
2023/08/21 14:14:43;;;;;;;1.73;1.40;;;25.40;91.90;;;;;;4959261;28;20967;-87